createdAt,value
2022-11-27T00:01:33.314Z,17.05
2022-11-27T00:04:01.319Z,13.00
2022-11-27T00:06:30.163Z,12.77
2022-11-27T00:08:58.968Z,16.50
2022-11-27T00:11:28.389Z,14.30
2022-11-27T00:13:58.413Z,13.73
2022-11-27T00:16:27.137Z,18.00
2022-11-27T00:18:58.018Z,12.57
2022-11-27T00:21:31.252Z,15.77
2022-11-27T00:24:00.533Z,16.83
2022-11-27T00:26:33.107Z,13.10
2022-11-27T00:29:04.279Z,13.48
2022-11-27T00:31:33.182Z,11.82
2022-11-27T00:34:03.191Z,14.10
2022-11-27T00:36:32.639Z,12.90
2022-11-27T00:39:03.781Z,14.32
2022-11-27T00:41:33.995Z,17.02
2022-11-27T00:44:01.962Z,16.92
2022-11-27T00:46:31.413Z,16.67
2022-11-27T00:49:00.840Z,14.25
2022-11-27T00:51:30.731Z,15.95
2022-11-27T00:53:58.897Z,12.32
2022-11-27T00:56:29.223Z,13.43
2022-11-27T00:58:57.902Z,12.48
2022-11-27T01:01:37.056Z,13.35
2022-11-27T01:04:06.228Z,15.18
2022-11-27T01:06:35.333Z,11.25
2022-11-27T01:09:03.432Z,14.63
2022-11-27T01:11:32.730Z,11.80
2022-11-27T01:14:04.547Z,6.97
2022-11-27T01:16:33.460Z,10.50
2022-11-27T01:19:02.002Z,8.75
2022-11-27T01:21:32.428Z,9.48
2022-11-27T01:24:00.909Z,12.38
2022-11-27T01:26:29.206Z,10.07
2022-11-27T01:28:57.699Z,9.18
2022-11-27T01:31:27.573Z,9.77
2022-11-27T01:33:58.203Z,9.80
2022-11-27T01:36:26.600Z,7.53
2022-11-27T01:38:54.754Z,11.65
2022-11-27T01:41:30.524Z,9.30
2022-11-27T01:44:00.372Z,11.50
2022-11-27T01:46:44.451Z,10.43
2022-11-27T01:49:31.026Z,14.07
2022-11-27T01:54:33.650Z,14.27
2022-11-27T01:57:05.287Z,11.68
2022-11-27T01:59:33.220Z,12.50
2022-11-27T02:02:01.759Z,12.25
2022-11-27T02:04:30.603Z,11.60
2022-11-27T02:06:59.532Z,10.70
2022-11-27T02:09:29.779Z,11.18
2022-11-27T02:12:00.440Z,14.27
2022-11-27T02:14:39.308Z,11.77
2022-11-27T02:17:20.632Z,13.95
2022-11-27T02:20:12.141Z,11.98
2022-11-27T02:22:49.010Z,9.15
2022-11-27T02:25:44.125Z,8.63
2022-11-27T02:28:23.422Z,10.10
2022-11-27T02:31:02.051Z,6.22
2022-11-27T02:33:30.419Z,10.00
2022-11-27T02:36:06.660Z,9.30
2022-11-27T02:38:40.378Z,7.65
2022-11-27T02:41:10.187Z,8.23
2022-11-27T02:43:41.756Z,13.57
2022-11-27T02:46:12.380Z,11.50
2022-11-27T02:48:49.837Z,11.50
2022-11-27T02:51:20.653Z,8.50
2022-11-27T02:53:56.905Z,12.80
2022-11-27T02:56:26.907Z,7.15
2022-11-27T02:58:56.693Z,10.63
2022-11-27T03:01:24.697Z,10.10
2022-11-27T03:03:55.594Z,11.13
2022-11-27T03:06:45.391Z,13.07
2022-11-27T03:09:23.338Z,10.50
2022-11-27T03:11:51.226Z,14.43
2022-11-27T03:14:24.616Z,10.23
2022-11-27T03:16:53.179Z,10.30
2022-11-27T03:19:44.230Z,10.30
2022-11-27T03:22:12.083Z,9.32
2022-11-27T03:24:40.310Z,13.65
2022-11-27T03:27:08.489Z,9.52
2022-11-27T03:29:48.040Z,9.43
2022-11-27T03:32:18.278Z,14.02
2022-11-27T03:34:46.160Z,8.80
2022-11-27T03:37:14.205Z,10.20
2022-11-27T03:39:42.887Z,11.55
2022-11-27T03:42:42.115Z,10.35
2022-11-27T03:45:22.464Z,9.95
2022-11-27T03:48:18.389Z,15.23
2022-11-27T03:51:16.126Z,14.05
2022-11-27T03:53:52.723Z,11.95
2022-11-27T03:56:49.133Z,10.70
2022-11-27T03:59:21.023Z,12.77
2022-11-27T04:01:49.571Z,13.25
2022-11-27T04:04:17.418Z,12.32
2022-11-27T04:06:45.278Z,10.38
2022-11-27T04:09:13.090Z,9.60
2022-11-27T04:11:40.878Z,14.00
2022-11-27T04:14:08.783Z,9.50
2022-11-27T04:16:37.161Z,8.05
2022-11-27T04:19:05.055Z,10.70
2022-11-27T04:21:33.115Z,8.15
2022-11-27T04:24:01.100Z,9.23
2022-11-27T04:26:28.951Z,15.75
2022-11-27T04:28:56.871Z,9.38
2022-11-27T04:31:24.707Z,9.30
2022-11-27T04:33:52.688Z,14.27
2022-11-27T04:36:20.867Z,9.60
2022-11-27T04:38:48.824Z,11.70
2022-11-27T04:41:17.646Z,15.45
2022-11-27T04:43:45.513Z,13.15
2022-11-27T04:46:13.427Z,10.57
2022-11-27T04:48:41.189Z,10.02
2022-11-27T04:51:09.034Z,9.25
2022-11-27T04:53:37.708Z,15.32
2022-11-27T04:56:05.597Z,24.08
2022-11-27T04:58:35.044Z,8.75
2022-11-27T05:01:02.862Z,11.18
2022-11-27T05:03:31.120Z,9.07
2022-11-27T05:05:58.981Z,12.73
2022-11-27T05:08:28.777Z,12.35
2022-11-27T05:11:15.573Z,9.45
2022-11-27T05:13:43.851Z,10.82
2022-11-27T05:16:11.755Z,10.43
2022-11-27T05:18:39.934Z,10.23
2022-11-27T05:21:08.734Z,10.18
2022-11-27T05:23:36.762Z,9.80
2022-11-27T05:26:04.813Z,9.73
2022-11-27T05:28:33.539Z,8.25
2022-11-27T05:31:01.717Z,10.63
2022-11-27T05:33:29.704Z,10.32
2022-11-27T05:35:57.509Z,10.20
2022-11-27T05:38:25.590Z,8.55
2022-11-27T05:40:53.489Z,8.18
2022-11-27T05:43:21.463Z,10.20
2022-11-27T05:45:49.478Z,11.68
2022-11-27T05:48:17.565Z,9.32
2022-11-27T05:50:45.417Z,8.90
2022-11-27T05:53:14.709Z,8.48
2022-11-27T05:55:42.622Z,7.38
2022-11-27T05:58:10.604Z,7.10
2022-11-27T06:00:39.973Z,7.47
2022-11-27T06:03:08.009Z,9.02
2022-11-27T06:05:40.127Z,11.65
2022-11-27T06:08:07.949Z,10.23
2022-11-27T06:10:38.674Z,9.68
2022-11-27T06:13:06.669Z,8.52
2022-11-27T06:15:37.062Z,10.60
2022-11-27T06:18:05.045Z,8.02
2022-11-27T06:20:33.186Z,11.90
2022-11-27T06:23:01.100Z,8.73
2022-11-27T06:25:28.993Z,10.43
2022-11-27T06:27:57.975Z,7.85
2022-11-27T06:30:26.137Z,10.52
2022-11-27T06:32:54.581Z,11.30
2022-11-27T06:35:22.947Z,8.65
2022-11-27T06:37:51.258Z,14.10
2022-11-27T06:40:22.181Z,10.43
2022-11-27T06:42:50.257Z,13.23
2022-11-27T06:45:19.806Z,11.25
2022-11-27T06:47:49.302Z,15.75
2022-11-27T06:50:18.239Z,8.90
2022-11-27T06:52:47.221Z,14.40
2022-11-27T08:26:48.037Z,10.95
2022-11-27T08:29:16.673Z,10.52
2022-11-27T08:31:44.752Z,12.02
2022-11-27T08:34:13.296Z,9.77
2022-11-27T08:36:41.317Z,14.35
2022-11-27T08:39:10.938Z,11.05
2022-11-27T08:41:38.926Z,10.82
2022-11-27T08:44:09.661Z,15.88
2022-11-27T08:46:37.687Z,13.77
2022-11-27T08:49:05.511Z,16.25
2022-11-27T08:51:37.380Z,14.38
2022-11-27T08:54:05.397Z,9.35
2022-11-27T08:56:33.152Z,11.32
2022-11-27T08:59:01.072Z,9.50
2022-11-27T09:01:30.208Z,9.13
2022-11-27T09:03:58.459Z,9.60
2022-11-27T09:06:31.145Z,12.02
2022-11-27T09:09:03.361Z,9.18
2022-11-27T09:11:32.360Z,9.32
2022-11-27T09:14:01.189Z,10.23
2022-11-27T09:16:30.755Z,7.82
2022-11-27T09:18:59.050Z,7.50
2022-11-27T09:21:28.758Z,8.80
2022-11-27T09:23:59.024Z,13.52
2022-11-27T09:26:27.218Z,8.15
2022-11-27T09:28:55.304Z,9.70
2022-11-27T09:31:23.325Z,9.20
2022-11-27T09:33:54.353Z,10.38
2022-11-27T09:36:24.757Z,11.25
2022-11-27T09:38:52.688Z,8.35
2022-11-27T09:41:39.878Z,8.60
2022-11-27T09:46:52.543Z,11.00
2022-11-27T09:49:36.803Z,9.30
2022-11-27T09:52:38.602Z,13.88
2022-11-27T09:55:26.274Z,9.82
2022-11-27T09:58:13.893Z,9.15
2022-11-27T10:00:44.729Z,9.43
2022-11-27T10:03:20.640Z,8.50
2022-11-27T10:06:09.057Z,10.05
2022-11-27T10:08:51.586Z,8.13
2022-11-27T10:11:44.530Z,8.50
2022-11-27T10:14:21.386Z,9.65
2022-11-27T10:17:03.339Z,7.40
2022-11-27T10:19:46.808Z,5.25
2022-11-27T10:22:30.553Z,6.22
2022-11-27T10:25:10.514Z,6.82
2022-11-27T10:27:43.342Z,8.25
2022-11-27T10:30:16.895Z,9.63
2022-11-27T10:33:01.259Z,9.48
2022-11-27T10:35:30.724Z,8.00
2022-11-27T10:38:07.060Z,7.85
2022-11-27T10:40:57.422Z,8.05
2022-11-27T10:43:26.343Z,10.90
2022-11-27T10:45:59.193Z,7.90
2022-11-27T10:48:29.566Z,7.88
2022-11-27T10:51:00.408Z,10.10
2022-11-27T10:53:38.678Z,9.00
2022-11-27T10:56:14.175Z,11.20
2022-11-27T10:58:52.675Z,8.82
2022-11-27T11:03:49.546Z,14.00
2022-11-27T11:07:07.021Z,12.68
2022-11-27T11:09:35.177Z,9.23
2022-11-27T11:12:21.813Z,13.93
2022-11-27T11:14:59.271Z,15.02
2022-11-27T11:17:28.609Z,16.00
2022-11-27T11:20:01.990Z,17.73
2022-11-27T11:22:31.156Z,15.80
2022-11-27T11:25:03.944Z,19.20
2022-11-27T11:27:32.533Z,17.02
2022-11-27T11:30:05.250Z,23.10
2022-11-27T11:32:36.617Z,18.33
2022-11-27T11:35:25.518Z,20.00
2022-11-27T11:37:53.990Z,16.98
2022-11-27T11:40:26.571Z,17.08
2022-11-27T11:43:02.692Z,19.85
2022-11-27T11:45:34.362Z,21.33
2022-11-27T11:48:25.427Z,18.65
2022-11-27T11:51:01.292Z,20.17
2022-11-27T11:53:55.381Z,21.35
2022-11-27T11:56:40.430Z,24.08
2022-11-27T11:59:17.866Z,23.65
2022-11-27T12:02:24.311Z,22.63
2022-11-27T12:05:14.954Z,27.10
2022-11-27T12:08:01.482Z,24.60
2022-11-27T12:10:55.533Z,22.35
2022-11-27T12:13:45.199Z,17.08
2022-11-27T12:16:24.961Z,25.95
2022-11-27T12:19:08.457Z,26.33
2022-11-27T12:21:53.970Z,17.65
2022-11-27T12:24:46.438Z,41.33
2022-11-27T12:27:32.382Z,34.80
2022-11-27T12:30:06.476Z,30.73
2022-11-27T12:32:53.750Z,25.48
2022-11-27T12:35:40.292Z,26.10
2022-11-27T12:38:19.219Z,22.90
2022-11-27T12:41:21.253Z,22.60
2022-11-27T12:43:52.141Z,30.48
2022-11-27T12:46:24.722Z,33.88
2022-11-27T12:49:01.539Z,19.92
2022-11-27T12:51:50.564Z,26.02
2022-11-27T17:48:35.178Z,42.22
2022-11-27T17:51:07.412Z,40.63
2022-11-27T17:53:35.385Z,46.28
2022-11-27T17:56:15.876Z,44.80
2022-11-27T17:58:44.043Z,40.38
2022-11-27T18:01:18.638Z,37.80
2022-11-27T18:03:48.219Z,35.70
2022-11-27T18:06:18.779Z,35.90
2022-11-27T18:08:49.543Z,37.15
2022-11-27T18:11:21.255Z,43.97
2022-11-27T18:13:50.083Z,58.67
2022-11-27T18:16:24.011Z,39.42
2022-11-27T18:18:54.370Z,40.85
2022-11-27T18:21:24.697Z,40.30
2022-11-27T18:24:21.837Z,55.92
2022-11-27T18:29:34.093Z,53.08
2022-11-27T18:32:03.421Z,53.63
2022-11-27T18:34:35.323Z,57.92
2022-11-27T18:37:06.773Z,58.85
2022-11-27T18:39:45.133Z,56.53
2022-11-27T18:42:14.494Z,56.65
2022-11-27T18:44:45.097Z,59.85
2022-11-27T18:47:14.918Z,57.45
2022-11-27T18:49:49.780Z,54.25
2022-11-27T18:52:20.693Z,52.80
2022-11-27T18:54:49.053Z,48.63
2022-11-27T18:57:19.657Z,45.53
2022-11-27T18:59:49.117Z,41.78
2022-11-27T19:02:17.640Z,45.03
2022-11-27T19:04:48.646Z,42.45
2022-11-27T19:07:18.765Z,43.85
2022-11-27T19:09:47.110Z,47.10
2022-11-27T19:12:15.926Z,58.70
2022-11-27T19:14:44.291Z,53.45
2022-11-27T19:17:33.560Z,50.83
2022-11-27T19:20:01.782Z,47.03
2022-11-27T19:22:32.309Z,48.65
2022-11-27T19:25:04.200Z,45.15
2022-11-27T19:27:33.116Z,45.00
2022-11-27T19:30:01.606Z,57.53
2022-11-27T19:32:34.250Z,50.40
2022-11-27T19:35:07.168Z,46.67
2022-11-27T19:37:37.070Z,47.95
2022-11-27T19:40:06.565Z,43.53
2022-11-27T19:42:35.105Z,53.33
2022-11-27T19:45:03.193Z,42.72
2022-11-27T19:47:33.631Z,47.05
2022-11-27T19:50:09.636Z,47.15
2022-11-27T19:52:38.008Z,50.47
2022-11-27T19:55:06.781Z,48.45
2022-11-27T19:57:34.783Z,45.53
2022-11-27T20:00:04.283Z,50.63
2022-11-27T20:02:42.751Z,46.90
2022-11-27T20:05:15.077Z,44.88
2022-11-27T20:07:44.549Z,51.55
2022-11-27T20:10:13.222Z,49.85
2022-11-27T20:12:42.497Z,44.47
2022-11-27T20:15:14.986Z,45.42
2022-11-27T20:17:44.205Z,47.08
2022-11-27T20:20:13.544Z,50.05
2022-11-27T20:22:44.575Z,46.38
2022-11-27T20:25:20.858Z,48.92
2022-11-27T20:27:53.042Z,43.17
2022-11-27T20:30:34.429Z,45.63
2022-11-27T20:33:07.776Z,41.72
2022-11-27T20:35:42.028Z,48.13
2022-11-27T20:38:11.859Z,45.87
2022-11-27T20:40:42.356Z,44.28
2022-11-27T20:43:14.264Z,44.15
2022-11-27T20:45:42.868Z,49.35
2022-11-27T20:48:31.906Z,47.42
2022-11-27T20:51:10.485Z,55.85
2022-11-27T20:53:41.646Z,54.50
2022-11-27T20:56:14.628Z,49.90
2022-11-27T20:58:43.914Z,49.90
2022-11-27T21:01:27.590Z,49.05
2022-11-27T21:03:56.712Z,47.58
2022-11-27T21:06:30.112Z,44.03
2022-11-27T21:09:01.156Z,47.88
2022-11-27T21:11:31.768Z,44.60
2022-11-27T21:14:06.024Z,43.65
2022-11-27T21:16:58.037Z,42.05
2022-11-27T21:19:32.482Z,46.00
2022-11-27T21:22:01.156Z,43.00
2022-11-27T21:24:30.031Z,48.75
2022-11-27T21:26:58.353Z,43.88
2022-11-27T21:29:29.120Z,43.85
2022-11-27T21:31:57.699Z,45.53
2022-11-27T21:34:29.589Z,47.17
2022-11-27T21:37:00.245Z,48.25
2022-11-27T21:39:28.299Z,48.58
2022-11-27T21:41:56.618Z,51.70
2022-11-27T21:44:24.957Z,49.08
2022-11-27T21:46:53.768Z,58.85
2022-11-27T21:49:21.822Z,54.75
2022-11-27T21:51:54.995Z,48.55
2022-11-27T21:54:32.241Z,51.33
2022-11-27T21:57:01.619Z,57.03
2022-11-27T21:59:34.324Z,51.38
2022-11-27T22:02:02.830Z,54.72
2022-11-27T22:04:31.433Z,58.80
2022-11-27T22:06:59.406Z,55.00
2022-11-27T22:09:38.230Z,60.63
2022-11-27T22:12:06.164Z,54.92
2022-11-27T22:14:35.828Z,58.63
2022-11-27T22:17:03.870Z,56.72
2022-11-27T22:19:32.178Z,59.28
2022-11-27T22:22:03.240Z,55.10
2022-11-27T22:24:31.289Z,51.75
2022-11-27T22:26:59.650Z,53.78
2022-11-27T22:29:30.173Z,53.67
2022-11-27T22:31:58.867Z,57.58
2022-11-27T22:34:27.095Z,53.65
2022-11-27T22:37:06.021Z,52.35
2022-11-27T22:39:35.320Z,55.40
2022-11-27T22:42:03.628Z,44.08
2022-11-27T22:44:39.425Z,48.17
2022-11-27T22:47:07.383Z,48.55
2022-11-27T22:49:35.448Z,50.22
2022-11-27T22:52:03.269Z,47.55
2022-11-27T22:54:31.076Z,51.83
2022-11-27T22:56:58.896Z,44.88
2022-11-27T22:59:34.819Z,52.28
2022-11-27T23:02:06.024Z,48.20
2022-11-27T23:04:38.335Z,48.80
2022-11-27T23:07:06.443Z,50.17
2022-11-27T23:09:35.126Z,48.80
2022-11-27T23:12:03.035Z,47.10
2022-11-27T23:14:32.362Z,52.83
2022-11-27T23:17:00.328Z,48.92
2022-11-27T23:19:28.190Z,47.00
2022-11-27T23:21:56.172Z,51.10
2022-11-27T23:24:24.029Z,51.92
2022-11-27T23:26:51.793Z,54.20
2022-11-27T23:29:21.518Z,49.70
2022-11-27T23:31:49.429Z,55.00
2022-11-27T23:34:17.233Z,53.55
2022-11-27T23:36:45.142Z,50.80
2022-11-27T23:39:14.320Z,57.92
2022-11-27T23:41:42.205Z,53.42
2022-11-27T23:44:10.381Z,54.13
2022-11-27T23:46:38.310Z,58.53
2022-11-27T23:49:06.285Z,57.70
2022-11-27T23:51:34.756Z,51.58
2022-11-27T23:54:05.754Z,54.42
2022-11-27T23:56:34.082Z,60.30
2022-11-27T23:59:02.228Z,65.90
